createdAt,value
2018-06-19T00:00:15.188Z,10.60
2018-06-19T00:04:17.408Z,11.07
2018-06-19T00:08:19.632Z,10.23
2018-06-19T00:12:21.849Z,9.33
2018-06-19T00:16:24.033Z,8.40
2018-06-19T00:20:26.289Z,9.93
2018-06-19T00:24:28.494Z,9.90
2018-06-19T00:28:30.743Z,7.50
2018-06-19T00:32:32.912Z,9.27
2018-06-19T00:36:35.096Z,8.73
2018-06-19T00:40:37.285Z,8.10
2018-06-19T00:44:39.575Z,9.27
2018-06-19T00:48:41.765Z,9.40
2018-06-19T00:52:43.952Z,9.93
2018-06-19T00:56:55.203Z,9.07
2018-06-19T01:00:57.403Z,10.00
2018-06-19T01:04:59.577Z,9.77
2018-06-19T01:09:01.796Z,9.17
2018-06-19T01:13:03.975Z,9.20
2018-06-19T01:17:06.179Z,10.60
2018-06-19T01:21:08.372Z,9.90
2018-06-19T01:25:10.559Z,11.20
2018-06-19T01:29:12.738Z,9.83
2018-06-19T01:33:14.938Z,9.87
2018-06-19T01:37:17.141Z,10.70
2018-06-19T01:41:19.712Z,10.43
2018-06-19T01:45:21.944Z,10.67
2018-06-19T01:49:24.132Z,9.93
2018-06-19T01:53:26.404Z,9.80
2018-06-19T01:57:28.588Z,9.13
2018-06-19T02:01:30.767Z,9.63
2018-06-19T02:05:33.049Z,9.67
2018-06-19T02:09:35.254Z,9.77
2018-06-19T02:13:37.468Z,8.90
2018-06-19T02:17:39.691Z,8.50
2018-06-19T02:21:41.884Z,9.10
2018-06-19T02:25:44.048Z,9.47
2018-06-19T02:29:46.325Z,8.87
2018-06-19T02:33:48.600Z,9.23
2018-06-19T02:37:51.009Z,8.10
2018-06-19T02:41:53.152Z,10.13
2018-06-19T02:45:55.341Z,11.10
2018-06-19T02:49:57.538Z,10.57
2018-06-19T02:53:59.712Z,9.30
2018-06-19T02:58:01.909Z,9.87
2018-06-19T03:02:04.121Z,8.97
2018-06-19T03:06:06.305Z,8.70
2018-06-19T03:10:08.528Z,8.63
2018-06-19T03:14:10.692Z,7.57
2018-06-19T03:18:12.884Z,9.30
2018-06-19T03:22:15.056Z,8.57
2018-06-19T03:26:17.287Z,9.67
2018-06-19T03:30:19.630Z,10.00
2018-06-19T03:34:21.727Z,9.87
2018-06-19T03:38:23.895Z,9.33
2018-06-19T03:42:26.075Z,8.73
2018-06-19T03:46:28.291Z,8.10
2018-06-19T03:50:30.488Z,8.00
2018-06-19T03:54:32.664Z,7.43
2018-06-19T03:58:35.032Z,8.73
2018-06-19T04:02:37.203Z,7.80
2018-06-19T04:06:39.437Z,8.37
2018-06-19T04:10:41.821Z,6.93
2018-06-19T04:14:44.788Z,9.17
2018-06-19T04:18:46.960Z,7.50
2018-06-19T04:22:49.148Z,7.37
2018-06-19T04:26:51.312Z,7.73
2018-06-19T04:30:53.508Z,8.37
2018-06-19T04:34:55.692Z,7.90
2018-06-19T04:38:57.872Z,9.00
2018-06-19T04:43:00.076Z,7.90
2018-06-19T04:47:02.464Z,8.07
2018-06-19T04:51:04.696Z,8.47
2018-06-19T04:55:06.919Z,9.03
2018-06-19T04:59:09.100Z,7.97
2018-06-19T05:03:11.309Z,7.57
2018-06-19T05:07:13.479Z,8.03
2018-06-19T05:11:15.952Z,9.90
2018-06-19T05:15:18.253Z,10.30
2018-06-19T05:19:20.433Z,8.37
2018-06-19T05:23:22.588Z,11.50
2018-06-19T05:27:24.768Z,12.57
2018-06-19T05:31:26.924Z,13.80
2018-06-19T05:35:29.115Z,13.63
2018-06-19T05:39:31.307Z,14.60
2018-06-19T05:43:33.506Z,11.83
2018-06-19T05:47:35.668Z,12.20
2018-06-19T05:51:37.895Z,10.47
2018-06-19T05:55:40.151Z,10.30
2018-06-19T05:59:42.324Z,11.17
2018-06-19T06:03:44.476Z,10.17
2018-06-19T06:07:46.643Z,20.30
2018-06-19T06:11:48.909Z,12.70
2018-06-19T06:15:51.091Z,10.67
2018-06-19T06:19:53.252Z,10.97
2018-06-19T06:23:55.444Z,9.80
2018-06-19T06:27:57.620Z,11.53
2018-06-19T06:31:59.796Z,12.10
2018-06-19T06:36:01.948Z,12.27
2018-06-19T06:40:04.311Z,11.17
2018-06-19T06:44:06.536Z,12.97
2018-06-19T06:48:08.720Z,14.57
2018-06-19T06:52:10.920Z,11.80
2018-06-19T06:56:13.112Z,12.30
2018-06-19T07:00:15.284Z,14.17
2018-06-19T07:04:17.523Z,12.93
2018-06-19T07:08:19.692Z,12.20
2018-06-19T07:12:21.924Z,15.37
2018-06-19T07:16:24.125Z,14.10
2018-06-19T07:20:26.312Z,14.17
2018-06-19T07:24:28.500Z,12.73
2018-06-19T07:28:30.662Z,14.37
2018-06-19T07:32:32.812Z,13.03
2018-06-19T07:36:34.991Z,12.03
2018-06-19T07:40:37.169Z,13.33
2018-06-19T07:44:39.380Z,15.70
2018-06-19T07:48:41.588Z,13.40
2018-06-19T07:52:43.752Z,17.20
2018-06-19T07:56:45.892Z,14.03
2018-06-19T08:00:48.061Z,18.00
2018-06-19T08:04:50.530Z,13.33
2018-06-19T08:08:52.707Z,13.50
2018-06-19T08:12:54.915Z,16.03
2018-06-19T08:16:57.099Z,12.33
2018-06-19T08:20:59.286Z,12.80
2018-06-19T08:25:01.485Z,13.20
2018-06-19T08:29:03.696Z,12.93
2018-06-19T08:33:05.920Z,13.40
2018-06-19T08:37:08.092Z,11.43
2018-06-19T08:41:10.285Z,12.40
2018-06-19T08:45:12.472Z,9.63
2018-06-19T08:49:14.640Z,10.33
2018-06-19T08:53:16.838Z,10.33
2018-06-19T08:57:19.028Z,9.23
2018-06-19T09:01:21.212Z,7.90
2018-06-19T09:05:23.430Z,8.27
2018-06-19T09:09:25.648Z,8.03
2018-06-19T09:13:27.886Z,7.90
2018-06-19T09:17:30.065Z,8.83
2018-06-19T09:21:32.270Z,8.83
2018-06-19T09:25:34.478Z,8.70
2018-06-19T09:29:36.708Z,8.00
2018-06-19T09:33:38.889Z,8.03
2018-06-19T09:37:41.097Z,8.10
2018-06-19T09:41:44.204Z,9.27
2018-06-19T09:45:46.348Z,8.40
2018-06-19T09:49:48.561Z,8.70
2018-06-19T09:53:50.777Z,8.67
2018-06-19T09:57:53.064Z,7.80
2018-06-19T10:01:55.257Z,7.97
2018-06-19T10:05:57.572Z,8.67
2018-06-19T10:09:59.741Z,10.20
2018-06-19T10:14:02.012Z,9.50
2018-06-19T10:18:04.364Z,9.50
2018-06-19T10:22:06.557Z,8.97
2018-06-19T10:26:08.721Z,10.67
2018-06-19T10:30:10.976Z,8.83
2018-06-19T10:34:13.183Z,9.27
2018-06-19T10:38:15.362Z,9.47
2018-06-19T10:42:17.508Z,8.10
2018-06-19T10:46:19.708Z,8.10
2018-06-19T10:50:21.880Z,8.17
2018-06-19T10:54:24.064Z,7.33
2018-06-19T10:58:26.216Z,6.47
2018-06-19T11:02:28.373Z,7.30
2018-06-19T11:06:30.584Z,7.20
2018-06-19T11:10:32.781Z,6.97
2018-06-19T11:14:34.932Z,6.90
2018-06-19T11:18:37.076Z,6.67
2018-06-19T11:22:39.217Z,6.57
2018-06-19T11:26:41.364Z,5.67
2018-06-19T11:30:43.496Z,6.43
2018-06-19T11:34:45.664Z,6.23
2018-06-19T11:38:47.826Z,4.33
2018-06-19T11:42:49.981Z,3.20
2018-06-19T11:46:52.908Z,3.90
2018-06-19T11:50:55.117Z,3.03
2018-06-19T11:54:57.400Z,3.20
2018-06-19T11:58:59.536Z,4.33
2018-06-19T12:03:01.676Z,3.33
2018-06-19T12:07:03.945Z,3.47
2018-06-19T12:11:06.137Z,3.57
2018-06-19T12:15:08.396Z,3.10
2018-06-19T12:19:10.585Z,3.30
2018-06-19T12:23:12.748Z,2.90
2018-06-19T12:27:14.893Z,3.40
2018-06-19T12:31:17.104Z,3.67
2018-06-19T12:35:19.241Z,3.30
2018-06-19T12:39:21.425Z,3.90
2018-06-19T12:43:23.621Z,3.23
2018-06-19T12:47:25.809Z,3.97
2018-06-19T12:52:38.964Z,4.53
2018-06-19T12:56:41.107Z,3.20
2018-06-19T13:00:43.385Z,3.40
2018-06-19T13:04:57.184Z,3.63
2018-06-19T13:08:59.356Z,3.47
2018-06-19T13:13:23.266Z,3.17
2018-06-19T13:17:37.112Z,3.57
2018-06-19T13:21:39.234Z,3.00
2018-06-19T13:25:41.420Z,2.50
2018-06-19T13:30:10.592Z,2.50
2018-06-19T13:34:12.747Z,2.80
2018-06-19T13:38:14.881Z,2.50
2018-06-19T13:42:42.418Z,2.83
2018-06-19T13:46:44.560Z,2.60
2018-06-19T13:50:46.716Z,2.33
2018-06-19T13:54:48.860Z,2.77
2018-06-19T13:58:51.008Z,2.60
2018-06-19T14:02:53.148Z,2.33
2018-06-19T14:06:55.321Z,2.60
2018-06-19T14:11:09.097Z,2.80
2018-06-19T14:15:11.252Z,2.73
2018-06-19T14:19:13.418Z,3.07
2018-06-19T14:23:15.592Z,2.60
2018-06-19T14:27:17.740Z,2.97
2018-06-19T14:31:19.900Z,2.73
2018-06-19T14:35:22.084Z,2.40
2018-06-19T14:39:24.216Z,2.80
2018-06-19T14:43:26.368Z,2.30
2018-06-19T14:47:28.804Z,2.93
2018-06-19T14:51:30.949Z,2.90
2018-06-19T14:55:33.096Z,3.60
2018-06-19T14:59:35.253Z,3.70
2018-06-19T15:03:37.404Z,3.43
2018-06-19T15:07:47.036Z,4.20
2018-06-19T15:11:49.172Z,4.60
2018-06-19T15:15:51.309Z,4.30
2018-06-19T15:19:53.518Z,4.13
2018-06-19T15:23:55.713Z,5.07
2018-06-19T15:27:58.881Z,4.80
2018-06-19T15:32:01.046Z,4.83
2018-06-19T15:36:03.210Z,5.47
2018-06-19T15:40:05.425Z,5.13
2018-06-19T15:44:07.755Z,5.13
2018-06-19T15:48:09.896Z,4.40
2018-06-19T15:52:12.050Z,6.93
2018-06-19T15:56:14.275Z,6.90
2018-06-19T16:00:16.401Z,7.20
2018-06-19T16:04:18.540Z,7.10
2018-06-19T16:08:20.688Z,7.07
2018-06-19T16:12:22.860Z,5.50
2018-06-19T16:16:25.012Z,5.97
2018-06-19T16:20:27.189Z,5.83
2018-06-19T16:24:29.337Z,5.80
2018-06-19T16:28:31.505Z,6.40
2018-06-19T16:32:33.680Z,6.57
2018-06-19T16:36:35.872Z,7.20
2018-06-19T16:40:38.076Z,6.80
2018-06-19T16:44:40.226Z,7.47
2018-06-19T16:48:42.404Z,7.90
2018-06-19T16:52:44.552Z,8.10
2018-06-19T16:56:46.713Z,8.47
2018-06-19T17:00:49.852Z,7.40
2018-06-19T17:04:52.000Z,7.63
2018-06-19T17:08:54.209Z,8.13
2018-06-19T17:12:56.384Z,8.90
2018-06-19T17:16:58.690Z,7.93
2018-06-19T17:21:01.857Z,8.10
2018-06-19T17:25:04.191Z,9.40
2018-06-19T17:29:06.365Z,8.50
2018-06-19T17:33:08.520Z,10.13
2018-06-19T17:37:10.676Z,10.57
2018-06-19T17:41:12.824Z,10.93
2018-06-19T17:45:14.963Z,12.17
2018-06-19T17:49:17.172Z,12.77
2018-06-19T17:53:19.490Z,11.30
2018-06-19T17:57:21.724Z,12.40
2018-06-19T18:01:23.921Z,12.30
2018-06-19T18:05:26.052Z,11.90
2018-06-19T18:09:28.200Z,12.60
2018-06-19T18:13:30.437Z,13.53
2018-06-19T18:17:32.649Z,13.53
2018-06-19T18:21:34.892Z,12.97
2018-06-19T18:25:37.078Z,13.20
2018-06-19T18:29:39.227Z,12.90
2018-06-19T18:33:42.395Z,12.90
2018-06-19T18:37:44.589Z,13.00
2018-06-19T18:41:46.752Z,13.40
2018-06-19T18:45:48.908Z,12.60
2018-06-19T18:49:51.717Z,13.33
2018-06-19T18:53:53.876Z,11.70
2018-06-19T18:57:56.139Z,11.20
2018-06-19T19:01:58.336Z,12.97
2018-06-19T19:06:00.500Z,12.30
2018-06-19T19:10:08.408Z,12.63
2018-06-19T19:14:10.558Z,12.60
2018-06-19T19:18:18.492Z,10.43
2018-06-19T19:22:20.669Z,11.33
2018-06-19T19:26:28.533Z,13.10
2018-06-19T19:30:30.716Z,12.03
2018-06-19T19:34:32.896Z,11.30
2018-06-19T19:38:40.692Z,10.73
2018-06-19T19:42:42.856Z,12.60
2018-06-19T19:46:50.673Z,10.90
2018-06-19T19:50:52.889Z,10.97
2018-06-19T19:54:55.052Z,11.13
2018-06-19T19:58:57.220Z,10.77
2018-06-19T20:02:59.379Z,10.50
2018-06-19T20:07:01.525Z,11.33
2018-06-19T20:11:03.669Z,10.27
2018-06-19T20:15:05.874Z,11.60
2018-06-19T20:19:08.021Z,9.37
2018-06-19T20:23:10.256Z,11.03
2018-06-19T20:27:12.360Z,11.67
2018-06-19T20:31:14.549Z,12.00
2018-06-19T20:35:16.696Z,11.60
2018-06-19T20:39:18.844Z,11.10
2018-06-19T20:43:21.028Z,12.00
2018-06-19T20:47:23.180Z,13.40
2018-06-19T20:51:25.343Z,13.17
2018-06-19T20:55:27.497Z,12.60
2018-06-19T20:59:29.820Z,13.80
2018-06-19T21:03:32.016Z,13.83
2018-06-19T21:07:34.202Z,13.70
2018-06-19T21:11:36.307Z,15.87
2018-06-19T21:15:38.471Z,14.50
2018-06-19T21:19:40.592Z,14.03
2018-06-19T21:23:42.760Z,14.97
2018-06-19T21:27:44.903Z,16.13
2018-06-19T21:31:47.055Z,14.70
2018-06-19T21:35:49.192Z,13.60
2018-06-19T21:39:51.341Z,16.10
2018-06-19T21:43:53.749Z,14.60
2018-06-19T21:47:55.913Z,14.10
2018-06-19T21:51:58.236Z,15.40
2018-06-19T21:56:00.380Z,15.03
2018-06-19T22:00:02.592Z,16.83
2018-06-19T22:04:04.781Z,16.40
2018-06-19T22:08:06.933Z,16.70
2018-06-19T22:12:09.080Z,15.20
2018-06-19T22:16:11.568Z,17.60
2018-06-19T22:20:13.732Z,17.97
2018-06-19T22:24:15.888Z,16.87
2018-06-19T22:28:18.028Z,18.17
2018-06-19T22:32:20.164Z,16.53
2018-06-19T22:36:22.321Z,17.53
2018-06-19T22:40:24.534Z,14.43
2018-06-19T22:44:26.692Z,16.90
2018-06-19T22:48:28.828Z,17.60
2018-06-19T22:52:30.995Z,16.40
2018-06-19T22:56:33.143Z,14.63
2018-06-19T23:00:35.288Z,17.00
2018-06-19T23:04:37.480Z,15.80
2018-06-19T23:08:39.656Z,17.80
2018-06-19T23:12:41.834Z,17.90
2018-06-19T23:16:43.988Z,18.10
2018-06-19T23:20:46.149Z,17.13
2018-06-19T23:24:48.348Z,18.43
2018-06-19T23:28:51.524Z,17.57
2018-06-19T23:32:53.699Z,18.50
2018-06-19T23:36:55.872Z,18.80
2018-06-19T23:40:58.044Z,19.27
2018-06-19T23:45:00.240Z,17.90
2018-06-19T23:49:02.413Z,19.23
2018-06-19T23:53:04.601Z,17.87
2018-06-19T23:57:06.848Z,18.03
